createdAt,value
2019-01-08T00:00:13.368Z,7.00
2019-01-08T00:02:45.128Z,6.10
2019-01-08T00:05:15.453Z,6.43
2019-01-08T00:07:45.648Z,7.67
2019-01-08T00:10:15.951Z,8.50
2019-01-08T00:12:46.236Z,8.20
2019-01-08T00:15:16.476Z,6.33
2019-01-08T00:17:46.835Z,10.33
2019-01-08T00:20:16.977Z,8.20
2019-01-08T00:22:47.201Z,6.10
2019-01-08T00:25:17.444Z,6.50
2019-01-08T00:27:47.706Z,8.07
2019-01-08T00:30:19.126Z,7.20
2019-01-08T00:32:49.627Z,6.42
2019-01-08T00:35:19.828Z,5.90
2019-01-08T00:37:50.127Z,5.13
2019-01-08T00:40:20.232Z,5.80
2019-01-08T00:42:50.485Z,5.23
2019-01-08T00:45:20.902Z,4.83
2019-01-08T00:47:51.376Z,4.65
2019-01-08T00:50:21.828Z,6.30
2019-01-08T00:52:52.125Z,5.93
2019-01-08T00:55:22.398Z,4.90
2019-01-08T00:57:52.823Z,5.73
2019-01-08T01:00:22.947Z,5.47
2019-01-08T01:02:53.192Z,4.97
2019-01-08T01:05:23.327Z,5.47
2019-01-08T01:07:53.503Z,4.70
2019-01-08T01:10:23.616Z,5.30
2019-01-08T01:12:54.041Z,4.00
2019-01-08T01:15:24.123Z,5.13
2019-01-08T01:17:54.430Z,4.67
2019-01-08T01:20:24.617Z,5.12
2019-01-08T01:22:54.856Z,4.47
2019-01-08T01:25:25.073Z,4.20
2019-01-08T01:27:55.290Z,5.07
2019-01-08T01:30:25.427Z,5.20
2019-01-08T01:32:55.659Z,5.80
2019-01-08T01:35:28.236Z,5.40
2019-01-08T01:37:58.632Z,5.17
2019-01-08T01:40:28.796Z,4.70
2019-01-08T01:43:00.223Z,5.33
2019-01-08T01:45:30.366Z,5.23
2019-01-08T01:48:00.529Z,4.47
2019-01-08T01:50:31.934Z,4.28
2019-01-08T01:53:02.247Z,4.58
2019-01-08T01:55:32.406Z,4.67
2019-01-08T01:58:03.166Z,4.33
2019-01-08T02:00:33.488Z,4.10
2019-01-08T02:03:03.827Z,4.27
2019-01-08T02:05:34.012Z,4.55
2019-01-08T02:08:04.228Z,4.30
2019-01-08T02:10:34.331Z,4.10
2019-01-08T02:13:04.467Z,4.47
2019-01-08T02:15:34.633Z,3.90
2019-01-08T02:18:04.921Z,4.10
2019-01-08T02:20:35.030Z,3.77
2019-01-08T02:23:05.286Z,4.10
2019-01-08T02:25:35.651Z,4.03
2019-01-08T02:28:05.844Z,4.27
2019-01-08T02:30:36.010Z,3.90
2019-01-08T02:33:06.229Z,3.77
2019-01-08T02:35:36.457Z,4.17
2019-01-08T02:38:06.609Z,4.53
2019-01-08T02:40:36.928Z,3.80
2019-01-08T02:43:07.046Z,3.77
2019-01-08T02:45:37.598Z,3.87
2019-01-08T02:48:08.155Z,3.53
2019-01-08T02:50:38.494Z,3.90
2019-01-08T02:53:08.716Z,3.77
2019-01-08T02:55:38.849Z,4.17
2019-01-08T02:58:08.960Z,3.60
2019-01-08T03:00:39.242Z,3.03
2019-01-08T03:03:09.602Z,3.77
2019-01-08T03:05:39.668Z,3.50
2019-01-08T03:08:09.769Z,2.97
2019-01-08T03:10:39.832Z,3.37
2019-01-08T03:13:10.031Z,3.27
2019-01-08T03:15:40.293Z,3.27
2019-01-08T03:18:10.382Z,3.43
2019-01-08T03:20:40.612Z,3.90
2019-01-08T03:23:10.831Z,3.53
2019-01-08T03:25:41.155Z,3.03
2019-01-08T03:28:12.388Z,3.10
2019-01-08T03:30:43.762Z,3.00
2019-01-08T03:33:13.949Z,2.40
2019-01-08T03:35:44.220Z,2.40
2019-01-08T03:38:15.309Z,2.47
2019-01-08T03:40:45.396Z,2.50
2019-01-08T03:43:15.385Z,2.30
2019-01-08T03:45:45.569Z,2.33
2019-01-08T03:48:15.791Z,2.47
2019-01-08T03:50:46.004Z,2.60
2019-01-08T03:53:16.123Z,2.40
2019-01-08T03:55:46.287Z,2.00
2019-01-08T03:58:16.510Z,2.57
2019-01-08T04:00:46.664Z,1.97
2019-01-08T04:03:17.019Z,2.20
2019-01-08T04:05:47.333Z,2.30
2019-01-08T04:08:17.471Z,2.00
2019-01-08T04:10:47.574Z,1.50
2019-01-08T04:13:17.773Z,2.03
2019-01-08T04:15:47.890Z,2.20
2019-01-08T04:18:18.157Z,1.70
2019-01-08T04:20:48.474Z,2.17
2019-01-08T04:23:18.685Z,1.80
2019-01-08T04:25:48.793Z,2.00
2019-01-08T04:28:18.948Z,1.97
2019-01-08T04:30:49.192Z,2.40
2019-01-08T04:33:19.482Z,1.70
2019-01-08T04:35:49.632Z,2.30
2019-01-08T04:38:19.795Z,1.97
2019-01-08T04:40:49.976Z,1.70
2019-01-08T04:43:20.282Z,2.27
2019-01-08T04:45:50.324Z,1.90
2019-01-08T04:48:20.479Z,1.80
2019-01-08T04:50:50.601Z,1.80
2019-01-08T04:53:20.758Z,2.17
2019-01-08T04:55:51.080Z,1.37
2019-01-08T04:58:21.226Z,1.60
2019-01-08T05:00:51.471Z,1.63
2019-01-08T05:03:21.806Z,1.93
2019-01-08T05:05:53.538Z,1.77
2019-01-08T05:08:24.161Z,1.90
2019-01-08T05:10:55.301Z,1.65
2019-01-08T05:13:25.464Z,1.97
2019-01-08T05:15:55.610Z,1.90
2019-01-08T05:18:28.990Z,1.40
2019-01-08T05:20:59.060Z,1.37
2019-01-08T05:23:30.238Z,1.53
2019-01-08T05:26:00.332Z,1.33
2019-01-08T05:28:30.459Z,1.80
2019-01-08T05:31:00.720Z,1.60
2019-01-08T05:33:30.883Z,1.70
2019-01-08T05:36:01.007Z,1.80
2019-01-08T05:38:31.204Z,2.70
2019-01-08T05:41:01.518Z,5.87
2019-01-08T05:43:31.928Z,2.00
2019-01-08T05:46:02.251Z,1.80
2019-01-08T05:48:32.513Z,1.45
2019-01-08T05:51:03.038Z,1.23
2019-01-08T05:53:33.413Z,1.70
2019-01-08T05:56:03.893Z,2.20
2019-01-08T05:58:33.977Z,1.70
2019-01-08T06:01:04.310Z,1.93
2019-01-08T06:03:34.439Z,2.20
2019-01-08T06:06:04.578Z,3.60
2019-01-08T06:08:34.720Z,2.23
2019-01-08T06:11:04.992Z,2.30
2019-01-08T06:13:35.208Z,1.97
2019-01-08T06:16:05.350Z,2.33
2019-01-08T06:18:35.711Z,2.23
2019-01-08T06:21:05.881Z,2.53
2019-01-08T06:23:36.148Z,2.60
2019-01-08T06:26:06.311Z,2.90
2019-01-08T06:28:36.899Z,2.77
2019-01-08T06:31:07.508Z,2.40
2019-01-08T06:33:37.732Z,2.70
2019-01-08T06:36:07.949Z,3.00
2019-01-08T06:38:38.326Z,2.10
2019-01-08T06:41:08.607Z,2.90
2019-01-08T06:43:39.307Z,2.60
2019-01-08T06:46:09.537Z,2.10
2019-01-08T06:48:39.838Z,2.30
2019-01-08T06:51:10.038Z,2.60
2019-01-08T06:53:40.274Z,2.33
2019-01-08T06:56:10.523Z,4.97
2019-01-08T06:58:40.688Z,2.17
2019-01-08T07:01:10.967Z,2.40
2019-01-08T07:03:41.095Z,1.97
2019-01-08T07:06:13.329Z,2.27
2019-01-08T07:08:43.561Z,2.43
2019-01-08T07:11:13.748Z,2.53
2019-01-08T07:13:43.943Z,1.85
2019-01-08T07:16:14.142Z,1.80
2019-01-08T07:18:44.236Z,2.40
2019-01-08T07:21:14.560Z,1.60
2019-01-08T07:23:45.753Z,21.47
2019-01-08T07:26:15.908Z,2.00
2019-01-08T07:28:46.184Z,1.87
2019-01-08T07:31:16.395Z,1.63
2019-01-08T07:33:46.656Z,1.80
2019-01-08T07:36:16.939Z,2.13
2019-01-08T07:38:47.329Z,2.00
2019-01-08T07:41:17.890Z,1.10
2019-01-08T07:43:48.207Z,1.50
2019-01-08T07:46:18.561Z,2.00
2019-01-08T07:48:48.787Z,1.40
2019-01-08T07:51:19.028Z,1.00
2019-01-08T07:53:49.725Z,1.50
2019-01-08T07:56:20.087Z,1.20
2019-01-08T07:58:50.213Z,1.03
2019-01-08T08:01:20.499Z,0.90
2019-01-08T08:03:50.743Z,1.30
2019-01-08T08:06:20.987Z,1.27
2019-01-08T08:08:51.136Z,2.00
2019-01-08T08:11:21.279Z,0.90
2019-01-08T08:13:51.431Z,1.07
2019-01-08T08:16:21.648Z,1.00
2019-01-08T08:18:51.879Z,1.10
2019-01-08T08:21:22.063Z,1.30
2019-01-08T08:23:52.377Z,1.20
2019-01-08T08:26:22.603Z,1.00
2019-01-08T08:28:52.748Z,1.97
2019-01-08T08:31:22.948Z,1.10
2019-01-08T08:33:53.164Z,1.13
2019-01-08T08:36:23.403Z,1.23
2019-01-08T08:38:53.493Z,1.60
2019-01-08T08:41:23.779Z,3.70
2019-01-08T08:43:53.885Z,1.20
2019-01-08T08:46:24.029Z,2.30
2019-01-08T08:48:54.410Z,2.20
2019-01-08T08:51:24.798Z,2.57
2019-01-08T08:53:55.185Z,1.43
2019-01-08T08:56:25.596Z,1.53
2019-01-08T08:58:55.908Z,4.60
2019-01-08T09:01:26.329Z,3.07
2019-01-08T09:03:56.699Z,2.30
2019-01-08T09:06:26.845Z,0.80
2019-01-08T09:08:57.186Z,2.50
2019-01-08T09:11:27.560Z,3.20
2019-01-08T09:13:58.050Z,3.60
2019-01-08T09:16:28.291Z,10.00
2019-01-08T09:18:58.936Z,11.30
2019-01-08T09:21:29.544Z,2.80
2019-01-08T09:23:59.768Z,4.87
2019-01-08T09:26:30.122Z,2.07
2019-01-08T09:29:00.251Z,5.08
2019-01-08T09:31:32.268Z,0.63
2019-01-08T09:34:02.638Z,1.77
2019-01-08T09:36:32.885Z,1.20
2019-01-08T09:39:04.653Z,1.40
2019-01-08T09:41:35.123Z,1.00
2019-01-08T09:44:05.374Z,0.63
2019-01-08T09:46:35.720Z,1.00
2019-01-08T09:49:05.857Z,0.70
2019-01-08T09:51:36.202Z,1.03
2019-01-08T09:54:06.338Z,3.90
2019-01-08T09:56:36.464Z,1.43
2019-01-08T09:59:06.619Z,2.17
2019-01-08T10:01:36.809Z,1.13
2019-01-08T10:04:07.004Z,1.00
2019-01-08T10:06:37.433Z,1.40
2019-01-08T10:09:08.314Z,1.20
2019-01-08T10:11:38.550Z,2.23
2019-01-08T10:14:08.738Z,1.07
2019-01-08T10:16:39.180Z,1.00
2019-01-08T10:19:09.325Z,1.30
2019-01-08T10:21:39.545Z,0.90
2019-01-08T10:24:09.677Z,0.90
2019-01-08T10:26:40.874Z,1.13
2019-01-08T10:29:11.202Z,1.72
2019-01-08T10:31:41.363Z,1.60
2019-01-08T10:34:11.865Z,0.90
2019-01-08T10:36:42.318Z,0.50
2019-01-08T10:39:12.443Z,0.83
2019-01-08T10:41:44.740Z,0.80
2019-01-08T10:44:15.250Z,1.03
2019-01-08T10:46:45.525Z,1.03
2019-01-08T10:49:16.204Z,1.07
2019-01-08T10:51:46.480Z,1.00
2019-01-08T10:54:16.798Z,2.07
2019-01-08T10:56:47.316Z,1.20
2019-01-08T10:59:17.734Z,1.53
2019-01-08T11:01:48.248Z,1.37
2019-01-08T11:04:18.793Z,0.93
2019-01-08T11:06:49.973Z,1.10
2019-01-08T11:09:21.313Z,1.17
2019-01-08T11:11:52.036Z,2.60
2019-01-08T11:14:22.189Z,1.40
2019-01-08T11:16:52.510Z,2.23
2019-01-08T11:19:22.686Z,5.47
2019-01-08T11:21:52.886Z,1.70
2019-01-08T11:24:23.080Z,1.30
2019-01-08T11:26:53.562Z,1.20
2019-01-08T11:29:23.761Z,1.90
2019-01-08T11:31:53.913Z,1.77
2019-01-08T11:34:24.534Z,1.30
2019-01-08T11:36:54.918Z,1.43
2019-01-08T11:39:25.301Z,1.03
2019-01-08T11:41:55.443Z,1.40
2019-01-08T11:44:25.695Z,1.87
2019-01-08T11:46:57.003Z,1.60
2019-01-08T11:49:27.213Z,1.40
2019-01-08T11:51:57.433Z,1.10
2019-01-08T11:54:27.585Z,1.23
2019-01-08T11:56:57.786Z,1.27
2019-01-08T11:59:27.888Z,1.47
2019-01-08T12:02:00.934Z,1.60
2019-01-08T12:04:31.273Z,1.43
2019-01-08T12:07:01.557Z,1.50
2019-01-08T12:09:31.956Z,1.63
2019-01-08T12:12:02.700Z,1.20
2019-01-08T12:14:32.924Z,1.00
2019-01-08T12:17:03.100Z,1.40
2019-01-08T12:19:33.233Z,2.08
2019-01-08T12:22:03.584Z,1.47
2019-01-08T12:24:33.732Z,1.33
2019-01-08T12:27:04.025Z,1.20
2019-01-08T12:29:34.184Z,1.10
2019-01-08T12:32:06.222Z,1.50
2019-01-08T12:34:36.368Z,1.37
2019-01-08T12:37:06.667Z,2.57
2019-01-08T12:39:36.815Z,1.13
2019-01-08T12:42:07.154Z,1.00
2019-01-08T12:44:37.298Z,1.30
2019-01-08T12:47:07.436Z,1.57
2019-01-08T12:49:37.666Z,1.20
2019-01-08T12:52:08.044Z,1.40
2019-01-08T12:54:38.291Z,1.10
2019-01-08T12:57:08.437Z,1.20
2019-01-08T12:59:38.630Z,0.90
2019-01-08T13:02:14.505Z,1.03
2019-01-08T13:04:40.906Z,1.47
2019-01-08T13:07:11.050Z,1.80
2019-01-08T13:09:41.170Z,1.42
2019-01-08T13:12:11.324Z,0.80
2019-01-08T13:14:41.570Z,1.30
2019-01-08T13:17:11.925Z,1.10
2019-01-08T13:19:42.143Z,0.83
2019-01-08T13:22:12.424Z,1.30
2019-01-08T13:24:42.935Z,1.47
2019-01-08T13:27:13.294Z,1.20
2019-01-08T13:29:43.630Z,0.77
2019-01-08T13:32:13.908Z,1.50
2019-01-08T13:34:44.236Z,1.30
2019-01-08T13:37:14.471Z,1.37
2019-01-08T13:39:45.046Z,1.47
2019-01-08T13:42:15.426Z,1.20
2019-01-08T13:44:45.655Z,1.20
2019-01-08T13:47:16.025Z,1.07
2019-01-08T13:49:46.709Z,1.00
2019-01-08T13:52:17.374Z,3.33
2019-01-08T13:54:47.754Z,1.23
2019-01-08T13:57:17.986Z,2.13
2019-01-08T13:59:48.102Z,1.10
2019-01-08T14:02:18.341Z,1.33
2019-01-08T14:04:48.495Z,1.23
2019-01-08T14:07:18.925Z,1.57
2019-01-08T14:09:49.381Z,1.73
2019-01-08T14:12:19.857Z,1.20
2019-01-08T14:14:50.098Z,1.37
2019-01-08T14:17:20.560Z,1.17
2019-01-08T14:19:50.815Z,2.30
2019-01-08T14:22:21.365Z,1.30
2019-01-08T14:24:54.877Z,3.10
2019-01-08T14:27:25.153Z,2.73
2019-01-08T14:29:55.385Z,1.23
2019-01-08T14:32:25.626Z,1.30
2019-01-08T14:34:55.850Z,1.90
2019-01-08T14:37:26.106Z,1.67
2019-01-08T14:39:56.393Z,1.40
2019-01-08T14:42:26.846Z,2.27
2019-01-08T14:44:57.301Z,1.07
2019-01-08T14:47:27.391Z,1.07
2019-01-08T14:49:57.736Z,1.40
2019-01-08T14:52:27.922Z,1.10
2019-01-08T14:54:58.462Z,1.30
2019-01-08T14:57:28.687Z,1.50
2019-01-08T15:00:00.768Z,1.60
2019-01-08T15:02:31.046Z,1.50
2019-01-08T15:05:04.465Z,2.03
2019-01-08T15:07:34.875Z,1.47
2019-01-08T15:10:05.855Z,1.43
2019-01-08T15:12:36.262Z,0.97
2019-01-08T15:15:07.275Z,2.10
2019-01-08T15:17:37.746Z,1.23
2019-01-08T15:20:08.984Z,1.20
2019-01-08T15:22:39.381Z,1.47
2019-01-08T15:25:09.732Z,1.50
2019-01-08T15:27:39.959Z,1.80
2019-01-08T15:30:11.186Z,1.00
2019-01-08T15:32:41.668Z,1.72
2019-01-08T15:35:12.295Z,1.30
2019-01-08T15:37:42.439Z,1.13
2019-01-08T15:40:12.711Z,1.70
2019-01-08T15:42:42.876Z,1.40
2019-01-08T15:45:13.100Z,1.70
2019-01-08T15:47:44.241Z,5.73
2019-01-08T15:50:14.531Z,1.30
2019-01-08T15:52:45.151Z,1.30
2019-01-08T15:55:15.555Z,1.40
2019-01-08T15:57:45.827Z,1.03
2019-01-08T16:00:16.021Z,1.40
2019-01-08T16:02:46.466Z,1.23
2019-01-08T16:05:17.959Z,1.20
2019-01-08T16:07:48.407Z,1.30
2019-01-08T16:10:18.877Z,1.10
2019-01-08T16:12:49.181Z,1.10
2019-01-08T16:15:19.947Z,0.87
2019-01-08T16:17:50.266Z,2.37
2019-01-08T16:20:20.714Z,0.80
2019-01-08T16:22:51.280Z,0.97
2019-01-08T16:25:21.959Z,0.87
2019-01-08T16:27:52.277Z,1.73
2019-01-08T16:30:22.990Z,0.87
2019-01-08T16:32:53.603Z,1.17
2019-01-08T16:35:23.773Z,1.50
2019-01-08T16:37:54.162Z,1.73
2019-01-08T16:40:24.952Z,1.30
2019-01-08T16:42:55.390Z,1.20
2019-01-08T16:45:25.703Z,1.60
2019-01-08T16:47:56.271Z,1.80
2019-01-08T16:50:26.529Z,4.20
2019-01-08T16:52:57.068Z,1.60
2019-01-08T16:55:27.428Z,1.57
2019-01-08T16:57:59.275Z,2.30
2019-01-08T17:00:29.648Z,1.03
2019-01-08T17:03:00.986Z,1.00
2019-01-08T17:05:32.908Z,1.05
2019-01-08T17:08:03.206Z,1.40
2019-01-08T17:10:33.520Z,1.20
2019-01-08T17:13:03.796Z,1.27
2019-01-08T17:15:34.582Z,1.47
2019-01-08T17:18:05.403Z,1.52
2019-01-08T17:20:36.158Z,1.37
2019-01-08T17:23:06.440Z,0.90
2019-01-08T17:25:36.727Z,1.30
2019-01-08T17:28:07.373Z,1.50
2019-01-08T17:30:37.758Z,0.90
2019-01-08T17:33:08.052Z,0.83
2019-01-08T17:35:38.309Z,1.33
2019-01-08T17:38:08.619Z,1.37
2019-01-08T17:40:39.359Z,1.03
2019-01-08T17:43:09.817Z,0.97
2019-01-08T17:45:39.972Z,1.30
2019-01-08T17:48:10.396Z,1.00
2019-01-08T17:50:42.398Z,1.50
2019-01-08T17:53:12.971Z,0.77
2019-01-08T17:55:44.875Z,0.97
2019-01-08T17:58:58.521Z,1.10
2019-01-08T18:01:31.705Z,0.97
2019-01-08T18:04:02.234Z,0.97
2019-01-08T18:06:32.909Z,1.17
2019-01-08T18:09:05.170Z,1.10
2019-01-08T18:11:35.359Z,1.30
2019-01-08T18:14:05.998Z,1.10
2019-01-08T18:16:36.295Z,1.20
2019-01-08T18:19:07.011Z,1.07
2019-01-08T18:21:37.527Z,1.77
2019-01-08T18:24:08.153Z,1.40
2019-01-08T18:26:38.829Z,1.27
2019-01-08T18:29:09.292Z,2.03
2019-01-08T18:31:39.818Z,1.25
2019-01-08T18:34:10.151Z,1.20
2019-01-08T18:36:40.522Z,8.33
2019-01-08T18:39:10.838Z,1.20
2019-01-08T18:41:41.138Z,1.47
2019-01-08T18:44:11.686Z,1.10
2019-01-08T18:46:42.125Z,1.33
2019-01-08T18:49:12.387Z,1.13
2019-01-08T18:51:43.227Z,1.83
2019-01-08T18:54:13.917Z,1.10
2019-01-08T18:56:44.255Z,0.93
2019-01-08T18:59:14.746Z,1.37
2019-01-08T19:01:45.313Z,1.20
2019-01-08T19:04:15.668Z,1.10
2019-01-08T19:06:46.092Z,1.00
2019-01-08T19:09:46.503Z,1.10
2019-01-08T19:12:19.714Z,1.30
2019-01-08T19:14:50.342Z,3.67
2019-01-08T19:17:20.853Z,1.23
2019-01-08T19:19:51.252Z,1.63
2019-01-08T19:22:21.678Z,2.03
2019-01-08T19:24:52.096Z,1.20
2019-01-08T19:27:22.403Z,1.20
2019-01-08T19:29:52.783Z,1.30
2019-01-08T19:32:23.070Z,1.60
2019-01-08T19:34:53.608Z,1.00
2019-01-08T19:37:24.033Z,1.80
2019-01-08T19:39:54.371Z,1.40
2019-01-08T19:42:24.924Z,1.10
2019-01-08T19:44:55.401Z,1.43
2019-01-08T19:47:25.985Z,1.77
2019-01-08T19:49:56.406Z,1.07
2019-01-08T19:52:29.032Z,1.10
2019-01-08T19:54:59.894Z,1.37
2019-01-08T19:57:30.516Z,2.10
2019-01-08T20:00:02.039Z,1.27
2019-01-08T20:02:33.405Z,1.03
2019-01-08T20:05:03.995Z,1.33
2019-01-08T20:07:35.294Z,1.37
2019-01-08T20:10:05.778Z,1.10
2019-01-08T20:12:36.087Z,1.07
2019-01-08T20:15:09.233Z,1.50
2019-01-08T20:17:39.881Z,2.20
2019-01-08T20:20:11.137Z,0.90
2019-01-08T20:22:41.374Z,1.37
2019-01-08T20:25:11.801Z,1.50
2019-01-08T20:27:42.492Z,1.57
2019-01-08T20:30:13.012Z,1.17
2019-01-08T20:32:43.214Z,1.20
2019-01-08T20:35:13.679Z,1.37
2019-01-08T20:37:43.877Z,1.47
2019-01-08T20:40:14.584Z,1.10
2019-01-08T20:42:44.932Z,1.87
2019-01-08T20:45:15.402Z,1.20
2019-01-08T20:47:45.731Z,1.20
2019-01-08T20:50:16.082Z,1.20
2019-01-08T20:52:46.645Z,2.67
2019-01-08T20:55:17.106Z,1.60
2019-01-08T20:57:47.387Z,0.90
2019-01-08T21:00:17.837Z,1.07
2019-01-08T21:02:48.488Z,0.90
2019-01-08T21:05:19.332Z,1.30
2019-01-08T21:07:50.944Z,1.07
2019-01-08T21:10:21.346Z,1.20
2019-01-08T21:12:51.911Z,1.00
2019-01-08T21:15:22.435Z,2.40
2019-01-08T21:17:52.789Z,1.37
2019-01-08T21:20:23.014Z,1.33
2019-01-08T21:22:53.204Z,1.37
2019-01-08T21:25:23.501Z,0.93
2019-01-08T21:27:54.041Z,1.03
2019-01-08T21:30:24.535Z,0.75
2019-01-08T21:32:54.883Z,0.80
2019-01-08T21:35:25.162Z,1.03
2019-01-08T21:37:55.459Z,1.13
2019-01-08T21:40:25.799Z,0.95
2019-01-08T21:42:56.188Z,0.70
2019-01-08T21:45:26.780Z,0.83
2019-01-08T21:47:57.977Z,0.87
2019-01-08T21:50:28.213Z,0.73
2019-01-08T21:59:51.069Z,1.30
2019-01-08T22:02:21.313Z,0.87
2019-01-08T22:04:53.240Z,1.27
2019-01-08T22:07:24.012Z,1.27
2019-01-08T22:09:54.718Z,0.73
2019-01-08T22:12:25.210Z,1.10
2019-01-08T22:14:55.791Z,0.97
2019-01-08T22:17:26.717Z,1.40
2019-01-08T22:19:57.304Z,0.70
2019-01-08T22:22:27.648Z,0.83
2019-01-08T22:24:59.544Z,1.43
2019-01-08T22:27:30.449Z,1.17
2019-01-08T22:30:00.921Z,0.77
2019-01-08T22:32:32.996Z,0.80
2019-01-08T22:35:03.341Z,1.00
2019-01-08T22:37:33.591Z,1.33
2019-01-08T22:40:03.867Z,1.60
2019-01-08T22:42:34.105Z,1.20
2019-01-08T22:45:04.398Z,1.43
2019-01-08T22:47:34.719Z,1.00
2019-01-08T22:50:06.709Z,1.20
2019-01-08T22:52:37.832Z,0.80
2019-01-08T22:55:08.218Z,1.22
2019-01-08T22:57:38.983Z,1.10
2019-01-08T23:00:32.789Z,0.83
2019-01-08T23:03:02.972Z,0.90
2019-01-08T23:05:33.221Z,1.03
2019-01-08T23:08:04.787Z,0.60
2019-01-08T23:10:37.305Z,0.80
2019-01-08T23:13:07.604Z,0.80
2019-01-08T23:15:37.982Z,1.03
2019-01-08T23:18:08.249Z,0.93
2019-01-08T23:20:38.953Z,0.97
2019-01-08T23:23:09.135Z,0.97
2019-01-08T23:25:39.582Z,0.90
2019-01-08T23:28:09.897Z,0.83
2019-01-08T23:30:40.197Z,1.30
2019-01-08T23:33:10.778Z,2.20
2019-01-08T23:35:41.092Z,0.90
2019-01-08T23:38:11.348Z,1.40
2019-01-08T23:40:41.662Z,1.63
2019-01-08T23:43:11.807Z,1.13
2019-01-08T23:45:42.143Z,1.07
2019-01-08T23:48:12.367Z,1.60
2019-01-08T23:50:42.772Z,1.00
2019-01-08T23:53:32.909Z,0.90
2019-01-08T23:56:05.924Z,0.90
2019-01-08T23:58:36.421Z,0.85
